Windsor, Illinois
Current Conditions -  °F | °C
As of 2:53 PM on Thursday 27 Nov 2014 (Local Time) from KMTO Reporting Station
Overcast Overcast  
Wind Chill: 14°   Ceiling: 2800
Heat Index: 27°   Visibility: 10mi
Dew Point: 21°   Wind: 17mph
Humidity: 78%   Direction: 290°WNW
Pressure: 30.4"   Gusts: NA
Location:  39.44°N, 88.59°W
Report Text: KMTO 272053Z AUTO 29015KT 10SM FEW012 BKN028 OVC035 M03/M06 A3040 RMK AO2 SNB15E25 SLP304 P0000 60000 T10281061 53003
Loading
Personal Weather Stations






























Interactive Weather Map New forecast layout! Learn more

10-Day Weather Forecast

Advertisements
Track Severe Weather on mobile